createdAt,value
2022-12-23T00:01:44.813Z,39.17
2022-12-23T00:04:14.904Z,38.50
2022-12-23T00:06:43.378Z,37.20
2022-12-23T00:09:11.707Z,37.80
2022-12-23T00:12:00.792Z,36.03
2022-12-23T00:14:46.515Z,34.60
2022-12-23T00:17:22.439Z,35.17
2022-12-23T00:19:53.081Z,34.77
2022-12-23T00:22:41.508Z,31.33
2022-12-23T00:25:10.204Z,30.47
2022-12-23T00:27:38.646Z,33.07
2022-12-23T00:30:09.337Z,31.67
2022-12-23T00:32:37.749Z,32.60
2022-12-23T00:35:08.343Z,31.37
2022-12-23T00:37:36.762Z,32.97
2022-12-23T00:40:23.466Z,31.60
2022-12-23T00:42:54.728Z,30.80
2022-12-23T00:45:23.510Z,33.50
2022-12-23T00:48:08.934Z,31.03
2022-12-23T00:50:40.485Z,29.77
2022-12-23T00:53:09.027Z,32.43
2022-12-23T00:55:37.373Z,30.10
2022-12-23T00:58:05.702Z,31.73
2022-12-23T01:00:51.429Z,31.93
2022-12-23T01:03:37.243Z,31.80
2022-12-23T01:06:07.530Z,31.57
2022-12-23T01:08:36.010Z,30.07
2022-12-23T01:11:04.908Z,28.43
2022-12-23T01:13:34.065Z,31.27
2022-12-23T01:16:03.234Z,28.80
2022-12-23T01:18:31.855Z,27.77
2022-12-23T01:21:03.303Z,28.17
2022-12-23T01:23:33.778Z,29.30
2022-12-23T01:26:04.215Z,30.17
2022-12-23T01:28:33.820Z,29.60
2022-12-23T01:31:03.825Z,30.27
2022-12-23T01:33:33.198Z,29.73
2022-12-23T01:36:02.171Z,29.43
2022-12-23T01:38:32.277Z,28.90
2022-12-23T01:41:00.851Z,30.53
2022-12-23T01:43:45.287Z,30.37
2022-12-23T01:46:13.806Z,27.93
2022-12-23T01:48:44.786Z,28.23
2022-12-23T01:51:17.380Z,29.07
2022-12-23T01:53:51.465Z,28.90
2022-12-23T01:56:24.594Z,27.90
2022-12-23T01:58:58.245Z,27.30
2022-12-23T02:01:45.761Z,29.50
2022-12-23T02:04:19.648Z,28.73
2022-12-23T02:07:08.207Z,29.13
2022-12-23T02:09:39.723Z,28.80
2022-12-23T02:12:34.838Z,28.93
2022-12-23T02:15:33.887Z,27.50
2022-12-23T02:18:14.861Z,27.87
2022-12-23T02:21:13.823Z,26.53
2022-12-23T02:24:20.774Z,28.07
2022-12-23T02:27:20.317Z,26.10
2022-12-23T02:30:24.915Z,29.17
2022-12-23T02:33:16.527Z,24.23
2022-12-23T02:35:52.794Z,28.00
2022-12-23T02:38:27.856Z,27.70
2022-12-23T02:41:05.540Z,29.70
2022-12-23T02:43:43.654Z,28.60
2022-12-23T02:46:19.401Z,27.20
2022-12-23T02:48:53.800Z,29.20
2022-12-23T02:51:27.479Z,26.70
2022-12-23T02:53:58.684Z,26.97
2022-12-23T02:56:30.494Z,30.97
2022-12-23T02:59:05.140Z,29.43
2022-12-23T03:01:35.128Z,27.57
2022-12-23T03:04:06.765Z,27.07
2022-12-23T03:06:40.377Z,26.67
2022-12-23T03:09:09.370Z,27.20
2022-12-23T03:11:47.203Z,26.60
2022-12-23T03:14:37.565Z,25.30
2022-12-23T03:17:21.913Z,27.50
2022-12-23T03:19:55.374Z,26.50
2022-12-23T03:22:29.691Z,29.50
2022-12-23T03:25:04.514Z,27.80
2022-12-23T03:27:40.089Z,27.50
2022-12-23T03:30:11.457Z,27.63
2022-12-23T03:32:48.075Z,30.10
2022-12-23T03:35:21.261Z,30.77
2022-12-23T03:37:52.989Z,30.53
2022-12-23T03:40:26.130Z,31.20
2022-12-23T03:43:01.715Z,31.40
2022-12-23T03:45:39.840Z,29.70
2022-12-23T03:48:16.593Z,29.00
2022-12-23T03:50:49.766Z,28.50
2022-12-23T03:53:22.956Z,29.63
2022-12-23T03:55:55.259Z,29.50
2022-12-23T03:58:34.769Z,31.67
2022-12-23T04:01:14.192Z,31.87
2022-12-23T04:03:55.464Z,28.10
2022-12-23T04:06:28.305Z,28.70
2022-12-23T04:08:58.045Z,26.57
2022-12-23T04:11:26.956Z,25.57
2022-12-23T04:13:55.485Z,24.33
2022-12-23T04:16:24.230Z,23.70
2022-12-23T04:18:52.855Z,22.57
2022-12-23T04:21:21.398Z,25.73
2022-12-23T04:23:51.215Z,24.07
2022-12-23T04:26:19.641Z,24.80
2022-12-23T04:28:47.991Z,28.13
2022-12-23T04:31:16.379Z,26.83
2022-12-23T04:33:44.715Z,27.03
2022-12-23T04:36:13.158Z,28.77
2022-12-23T04:38:41.434Z,28.20
2022-12-23T04:41:11.306Z,25.83
2022-12-23T04:43:39.672Z,25.30
2022-12-23T04:46:08.105Z,25.23
2022-12-23T04:48:37.165Z,22.70
2022-12-23T04:51:06.576Z,20.30
2022-12-23T04:53:37.208Z,21.73
2022-12-23T04:56:06.011Z,18.20
2022-12-23T04:58:35.932Z,19.03
2022-12-23T05:01:05.783Z,18.60
2022-12-23T05:03:34.816Z,18.00
2022-12-23T05:06:03.340Z,18.43
2022-12-23T05:08:32.114Z,19.47
2022-12-23T05:11:00.579Z,17.07
2022-12-23T05:13:28.973Z,18.97
2022-12-23T05:15:58.729Z,17.43
2022-12-23T05:18:27.330Z,17.37
2022-12-23T05:20:55.679Z,18.53
2022-12-23T05:23:23.911Z,16.50
2022-12-23T05:25:53.777Z,18.90
2022-12-23T05:28:23.083Z,19.20
2022-12-23T05:30:59.934Z,18.83
2022-12-23T05:33:29.060Z,17.63
2022-12-23T05:35:57.722Z,18.20
2022-12-23T05:38:26.380Z,17.87
2022-12-23T05:40:55.336Z,16.43
2022-12-23T05:43:24.018Z,17.90
2022-12-23T05:45:53.245Z,14.53
2022-12-23T05:48:23.155Z,15.27
2022-12-23T05:50:52.199Z,15.07
2022-12-23T05:53:21.215Z,15.43
2022-12-23T05:55:49.629Z,14.50
2022-12-23T05:58:18.429Z,14.50
2022-12-23T06:00:46.908Z,13.93
2022-12-23T06:03:15.647Z,13.47
2022-12-23T06:05:45.592Z,15.30
2022-12-23T06:08:14.029Z,14.63
2022-12-23T06:10:42.383Z,12.93
2022-12-23T06:13:10.955Z,13.83
2022-12-23T06:15:39.388Z,16.10
2022-12-23T06:18:07.908Z,14.87
2022-12-23T06:20:36.455Z,16.27
2022-12-23T06:23:06.367Z,18.17
2022-12-23T06:25:34.795Z,16.30
2022-12-23T06:28:03.325Z,16.40
2022-12-23T06:30:31.682Z,15.13
2022-12-23T06:33:00.110Z,15.30
2022-12-23T06:35:28.538Z,14.40
2022-12-23T06:37:57.039Z,15.53
2022-12-23T06:40:29.050Z,14.47
2022-12-23T06:42:57.522Z,14.93
2022-12-23T06:45:26.009Z,15.83
2022-12-23T06:47:54.465Z,17.27
2022-12-23T06:50:22.847Z,18.90
2022-12-23T06:52:51.652Z,17.80
2022-12-23T06:55:19.993Z,22.07
2022-12-23T06:57:49.662Z,21.50
2022-12-23T07:00:18.840Z,23.30
2022-12-23T07:02:47.518Z,23.90
2022-12-23T07:05:17.087Z,24.77
2022-12-23T07:07:45.445Z,21.30
2022-12-23T07:10:13.755Z,23.40
2022-12-23T07:12:46.089Z,20.00
2022-12-23T07:15:20.183Z,19.23
2022-12-23T07:17:48.608Z,16.57
2022-12-23T07:20:17.171Z,17.30
2022-12-23T07:22:45.941Z,16.53
2022-12-23T07:25:14.692Z,16.90
2022-12-23T07:27:43.500Z,16.20
2022-12-23T07:30:12.446Z,17.27
2022-12-23T07:32:42.189Z,15.67
2022-12-23T07:35:10.930Z,17.33
2022-12-23T07:37:39.440Z,16.17
2022-12-23T07:40:09.543Z,16.60
2022-12-23T07:42:46.855Z,17.13
2022-12-23T07:45:15.626Z,16.63
2022-12-23T07:47:45.352Z,15.90
2022-12-23T07:50:13.946Z,15.20
2022-12-23T07:52:42.371Z,16.00
2022-12-23T07:55:11.129Z,15.70
2022-12-23T07:57:40.729Z,16.57
2022-12-23T08:00:12.854Z,17.50
2022-12-23T08:02:42.662Z,17.57
2022-12-23T08:05:13.685Z,16.80
2022-12-23T08:07:42.161Z,18.10
2022-12-23T08:10:11.635Z,16.30
2022-12-23T08:12:39.996Z,16.20
2022-12-23T08:15:10.424Z,19.27
2022-12-23T08:17:38.955Z,17.60
2022-12-23T08:20:08.951Z,17.57
2022-12-23T08:22:38.859Z,18.10
2022-12-23T08:25:08.126Z,20.33
2022-12-23T08:27:36.777Z,17.20
2022-12-23T08:30:05.851Z,18.10
2022-12-23T08:32:34.202Z,18.77
2022-12-23T08:35:02.737Z,21.10
2022-12-23T08:37:31.015Z,18.80
2022-12-23T08:40:00.799Z,19.50
2022-12-23T08:42:29.246Z,20.00
2022-12-23T08:44:57.682Z,19.30
2022-12-23T08:47:26.040Z,20.47
2022-12-23T08:49:54.651Z,19.43
2022-12-23T08:52:23.110Z,19.97
2022-12-23T08:54:51.477Z,20.53
2022-12-23T08:57:21.252Z,18.60
2022-12-23T08:59:49.600Z,19.10
2022-12-23T09:02:18.094Z,20.30
2022-12-23T09:04:46.813Z,20.37
2022-12-23T09:07:15.195Z,21.10
2022-12-23T09:09:43.748Z,20.17
2022-12-23T09:12:12.225Z,21.67
2022-12-23T09:14:42.092Z,21.80
2022-12-23T09:17:10.533Z,21.70
2022-12-23T09:19:38.900Z,20.23
2022-12-23T09:22:07.339Z,18.60
2022-12-23T09:24:35.720Z,17.80
2022-12-23T09:27:04.214Z,17.67
2022-12-23T09:29:32.889Z,17.60
2022-12-23T09:32:02.782Z,17.40
2022-12-23T09:34:31.496Z,16.50
2022-12-23T09:36:59.865Z,16.80
2022-12-23T09:39:28.600Z,18.30
2022-12-23T09:42:06.166Z,18.97
2022-12-23T09:44:44.413Z,17.10
2022-12-23T09:47:17.677Z,18.30
2022-12-23T09:49:50.089Z,16.83
2022-12-23T09:52:24.996Z,15.53
2022-12-23T09:54:56.070Z,18.07
2022-12-23T09:57:32.563Z,16.67
2022-12-23T10:00:12.176Z,17.17
2022-12-23T10:02:54.171Z,17.67
2022-12-23T10:05:31.510Z,17.23
2022-12-23T10:08:05.006Z,17.47
2022-12-23T10:10:38.930Z,15.87
2022-12-23T10:13:29.721Z,16.30
2022-12-23T10:16:03.510Z,16.47
2022-12-23T10:18:43.509Z,15.33
2022-12-23T10:21:17.702Z,16.50
2022-12-23T10:23:51.486Z,16.27
2022-12-23T10:26:25.063Z,15.43
2022-12-23T10:29:19.251Z,15.37
2022-12-23T10:32:00.816Z,14.57
2022-12-23T10:34:38.956Z,15.80
2022-12-23T10:37:12.932Z,17.07
2022-12-23T10:39:51.533Z,15.70
2022-12-23T10:42:28.740Z,16.37
2022-12-23T10:45:09.106Z,17.60
2022-12-23T10:47:49.119Z,23.07
2022-12-23T10:50:40.170Z,27.70
2022-12-23T10:53:13.653Z,32.20
2022-12-23T10:55:42.122Z,31.80
2022-12-23T10:58:16.249Z,33.27
2022-12-23T11:00:49.174Z,34.00
2022-12-23T11:03:23.502Z,34.10
2022-12-23T11:05:54.645Z,32.70
2022-12-23T11:08:25.484Z,33.87
2022-12-23T11:10:55.037Z,34.63
2022-12-23T11:13:34.683Z,33.70
2022-12-23T11:16:25.734Z,31.93
2022-12-23T11:19:00.777Z,33.37
2022-12-23T11:21:32.682Z,31.97
2022-12-23T11:24:18.797Z,32.70
2022-12-23T11:26:50.370Z,30.30
2022-12-23T11:29:24.092Z,31.93
2022-12-23T11:31:53.477Z,28.20
2022-12-23T11:34:24.502Z,31.73
2022-12-23T11:37:01.568Z,29.70
2022-12-23T11:39:34.113Z,31.50
2022-12-23T11:42:12.487Z,32.07
2022-12-23T11:44:43.950Z,32.10
2022-12-23T11:47:30.880Z,29.97
2022-12-23T11:50:01.695Z,30.47
2022-12-23T11:52:33.399Z,31.97
2022-12-23T11:55:04.123Z,32.20
2022-12-23T11:57:40.057Z,32.10
2022-12-23T12:00:17.823Z,30.10
2022-12-23T12:02:48.615Z,31.07
2022-12-23T12:05:26.509Z,30.93
2022-12-23T12:08:01.268Z,28.33
2022-12-23T12:10:32.327Z,28.37
2022-12-23T12:13:04.691Z,26.77
2022-12-23T12:15:42.504Z,29.47
2022-12-23T12:18:14.621Z,29.67
2022-12-23T12:20:46.959Z,29.60
2022-12-23T12:23:22.604Z,34.17
2022-12-23T12:25:56.687Z,32.17
2022-12-23T12:28:26.927Z,31.80
2022-12-23T12:31:01.402Z,32.77
2022-12-23T12:33:36.760Z,32.33
2022-12-23T12:36:13.746Z,30.90
2022-12-23T12:38:47.802Z,32.03
2022-12-23T12:41:20.114Z,32.90
2022-12-23T12:43:53.688Z,33.87
2022-12-23T12:46:30.324Z,34.23
2022-12-23T12:49:04.917Z,31.37
2022-12-23T12:51:39.413Z,53.23
2022-12-23T12:54:20.781Z,38.17
2022-12-23T12:56:52.277Z,39.40
2022-12-23T12:59:23.508Z,35.07
2022-12-23T13:02:16.146Z,33.13
2022-12-23T13:05:26.302Z,31.63
2022-12-23T13:08:18.086Z,33.90
2022-12-23T13:10:51.049Z,33.77
2022-12-23T13:13:36.826Z,30.77
2022-12-23T13:16:15.310Z,32.53
2022-12-23T13:18:52.457Z,30.70
2022-12-23T13:21:27.146Z,30.63
2022-12-23T13:24:05.029Z,30.97
2022-12-23T13:26:39.919Z,32.33
2022-12-23T13:29:41.030Z,32.90
2022-12-23T13:32:27.039Z,31.80
2022-12-23T13:35:04.161Z,31.70
2022-12-23T13:37:40.588Z,34.00
2022-12-23T13:40:26.038Z,33.17
2022-12-23T13:43:00.522Z,32.60
2022-12-23T13:45:34.138Z,29.00
2022-12-23T13:48:20.695Z,34.50
2022-12-23T13:50:55.085Z,29.83
2022-12-23T13:53:30.175Z,34.40
2022-12-23T13:56:10.972Z,32.37
2022-12-23T13:58:42.421Z,30.53
2022-12-23T14:01:34.342Z,30.60
2022-12-23T14:04:31.896Z,29.07
2022-12-23T14:07:02.329Z,30.57
2022-12-23T14:09:34.392Z,31.23
2022-12-23T14:12:20.155Z,30.90
2022-12-23T14:15:13.009Z,31.63
2022-12-23T14:17:52.179Z,33.80
2022-12-23T14:20:33.438Z,33.43
2022-12-23T14:23:18.903Z,34.43
2022-12-23T14:26:00.355Z,34.07
2022-12-23T14:28:46.855Z,36.20
2022-12-23T14:31:40.666Z,30.50
2022-12-23T14:34:28.131Z,32.53
2022-12-23T14:37:16.446Z,31.97
2022-12-23T14:39:44.997Z,29.93
2022-12-23T14:42:16.871Z,31.60
2022-12-23T14:44:49.822Z,31.80
2022-12-23T14:47:35.047Z,33.83
2022-12-23T14:50:39.250Z,37.40
2022-12-23T14:53:23.417Z,33.30
2022-12-23T14:56:10.678Z,32.17
2022-12-23T14:59:03.454Z,32.57
2022-12-23T15:01:37.041Z,28.60
2022-12-23T15:04:20.272Z,32.37
2022-12-23T15:06:51.857Z,30.80
2022-12-23T15:09:25.969Z,30.40
2022-12-23T15:11:55.783Z,33.10
2022-12-23T15:14:33.288Z,30.93
2022-12-23T15:17:15.453Z,29.73
2022-12-23T15:19:48.314Z,29.13
2022-12-23T15:22:24.132Z,28.90
2022-12-23T15:24:58.732Z,29.57
2022-12-23T15:27:30.314Z,30.03
2022-12-23T15:29:59.461Z,29.87
2022-12-23T15:32:28.960Z,31.07
2022-12-23T15:35:04.255Z,31.00
2022-12-23T15:37:33.795Z,29.07
2022-12-23T15:40:12.255Z,29.73
2022-12-23T15:42:47.313Z,29.13
2022-12-23T15:45:35.179Z,31.13
2022-12-23T15:48:04.681Z,30.20
2022-12-23T15:50:40.611Z,32.77
2022-12-23T15:53:11.437Z,30.80
2022-12-23T15:55:41.951Z,29.97
2022-12-23T15:58:19.143Z,32.67
2022-12-23T16:00:56.448Z,33.30
2022-12-23T16:03:29.595Z,31.23
2022-12-23T16:06:10.549Z,30.93
2022-12-23T16:08:39.962Z,30.80
2022-12-23T16:11:15.659Z,32.37
2022-12-23T16:13:58.770Z,31.80
2022-12-23T16:16:40.770Z,28.50
2022-12-23T16:19:39.078Z,27.37
2022-12-23T16:22:29.165Z,26.87
2022-12-23T16:25:08.118Z,27.37
2022-12-23T16:27:39.985Z,28.57
2022-12-23T16:30:17.586Z,26.80
2022-12-23T16:32:50.657Z,26.40
2022-12-23T16:35:29.675Z,26.40
2022-12-23T16:38:15.823Z,26.90
2022-12-23T16:40:45.566Z,25.00
2022-12-23T16:43:14.260Z,25.40
2022-12-23T16:45:43.163Z,23.13
2022-12-23T16:48:19.461Z,23.10
2022-12-23T16:50:48.264Z,22.80
2022-12-23T16:53:18.155Z,28.83
2022-12-23T16:55:53.732Z,30.40
2022-12-23T16:58:25.197Z,29.00
2022-12-23T17:00:54.406Z,28.90
2022-12-23T17:03:22.956Z,25.67
2022-12-23T17:05:51.331Z,24.53
2022-12-23T17:08:21.180Z,25.30
2022-12-23T17:10:49.804Z,25.10
2022-12-23T17:13:19.848Z,22.47
2022-12-23T17:15:48.349Z,23.17
2022-12-23T17:18:18.685Z,21.43
2022-12-23T17:20:48.457Z,21.47
2022-12-23T17:23:27.148Z,21.10
2022-12-23T17:25:55.826Z,23.00
2022-12-23T17:28:27.256Z,20.17
2022-12-23T17:30:56.853Z,20.93
2022-12-23T17:33:28.823Z,22.80
2022-12-23T17:35:57.446Z,21.60
2022-12-23T17:38:29.126Z,24.90
2022-12-23T17:40:59.483Z,24.70
2022-12-23T17:43:28.337Z,26.40
2022-12-23T17:45:56.798Z,25.93
2022-12-23T17:48:31.174Z,26.13
2022-12-23T17:51:00.345Z,25.27
2022-12-23T17:53:30.275Z,26.23
2022-12-23T17:55:58.725Z,25.13
2022-12-23T17:58:27.211Z,27.23
2022-12-23T18:00:55.787Z,26.07
2022-12-23T18:03:25.144Z,23.70
2022-12-23T18:06:01.278Z,24.50
2022-12-23T18:08:31.967Z,23.17
2022-12-23T18:11:01.133Z,23.40
2022-12-23T18:13:29.638Z,23.47
2022-12-23T18:15:58.276Z,22.87
2022-12-23T18:18:37.817Z,21.70
2022-12-23T18:21:13.105Z,23.53
2022-12-23T18:23:42.955Z,23.40
2022-12-23T18:26:15.146Z,27.93
2022-12-23T18:28:44.014Z,30.23
2022-12-23T18:31:16.525Z,32.50
2022-12-23T18:33:45.184Z,28.20
2022-12-23T18:36:23.205Z,26.90
2022-12-23T18:38:53.723Z,28.10
2022-12-23T18:41:23.082Z,29.10
2022-12-23T18:43:52.560Z,32.90
2022-12-23T18:46:21.640Z,31.30
2022-12-23T18:48:51.478Z,36.37
2022-12-23T18:51:21.555Z,36.07
2022-12-23T18:53:50.089Z,35.57
2022-12-23T18:56:21.449Z,37.50
2022-12-23T18:58:49.984Z,39.13
2022-12-23T19:01:19.316Z,39.50
2022-12-23T19:03:48.171Z,40.07
2022-12-23T19:06:17.483Z,41.37
2022-12-23T19:08:46.336Z,42.73
2022-12-23T19:11:16.398Z,44.67
2022-12-23T19:13:46.863Z,40.90
2022-12-23T19:16:17.406Z,41.37
2022-12-23T19:18:46.587Z,41.53
2022-12-23T19:21:15.753Z,44.10
2022-12-23T19:23:44.948Z,45.63
2022-12-23T19:26:15.095Z,50.20
2022-12-23T19:28:45.386Z,47.27
2022-12-23T19:31:15.300Z,47.03
2022-12-23T19:33:45.291Z,49.97
2022-12-23T19:36:15.320Z,47.90
2022-12-23T19:38:43.840Z,49.47
2022-12-23T19:41:12.430Z,49.37
2022-12-23T19:43:41.021Z,53.37
2022-12-23T19:46:11.798Z,52.30
2022-12-23T19:48:40.466Z,53.37
2022-12-23T19:51:10.943Z,53.87
2022-12-23T19:53:39.935Z,59.70
2022-12-23T19:56:11.560Z,56.33
2022-12-23T19:58:41.683Z,57.90
2022-12-23T20:01:13.889Z,55.10
2022-12-23T20:03:44.891Z,59.23
2022-12-23T20:06:17.223Z,63.60
2022-12-23T20:08:46.703Z,61.97
2022-12-23T20:11:17.491Z,63.30
2022-12-23T20:13:46.612Z,59.60
2022-12-23T20:16:16.565Z,61.93
2022-12-23T20:18:44.945Z,64.23
2022-12-23T20:21:13.477Z,66.57
2022-12-23T20:23:41.949Z,66.07
2022-12-23T20:26:11.730Z,63.37
2022-12-23T20:28:40.298Z,62.97
2022-12-23T20:31:14.272Z,66.07
2022-12-23T20:33:44.429Z,62.00
2022-12-23T20:36:14.079Z,63.63
2022-12-23T20:38:44.615Z,65.10
2022-12-23T20:41:15.107Z,65.77
2022-12-23T20:43:46.092Z,66.80
2022-12-23T20:46:22.624Z,62.50
2022-12-23T20:48:53.289Z,61.40
2022-12-23T20:51:24.204Z,63.13
2022-12-23T20:53:53.507Z,60.57
2022-12-23T20:56:27.458Z,66.00
2022-12-23T20:58:57.863Z,65.17
2022-12-23T21:01:29.446Z,69.87
2022-12-23T21:04:01.597Z,67.63
2022-12-23T21:06:31.805Z,65.00
2022-12-23T21:09:01.702Z,64.67
2022-12-23T21:11:31.378Z,63.23
2022-12-23T21:14:06.276Z,61.30
2022-12-23T21:16:36.932Z,66.47
2022-12-23T21:19:07.545Z,63.30
2022-12-23T21:21:36.164Z,60.87
2022-12-23T21:24:05.334Z,66.50
2022-12-23T21:26:35.372Z,65.87
2022-12-23T21:29:06.062Z,62.00
2022-12-23T21:31:36.594Z,62.83
2022-12-23T21:34:06.983Z,64.50
2022-12-23T21:36:38.633Z,65.03
2022-12-23T21:39:08.705Z,63.77
2022-12-23T21:41:39.077Z,65.00
2022-12-23T21:44:07.838Z,62.40
2022-12-23T21:46:36.577Z,62.77
2022-12-23T21:49:06.517Z,63.00
2022-12-23T21:51:40.134Z,64.20
2022-12-23T21:54:10.968Z,64.47
2022-12-23T21:56:40.645Z,64.23
2022-12-23T21:59:12.303Z,65.97
2022-12-23T22:01:41.561Z,61.10
2022-12-23T22:04:11.831Z,60.73
2022-12-23T22:06:43.674Z,60.30
2022-12-23T22:09:14.314Z,59.87
2022-12-23T22:11:43.230Z,63.50
2022-12-23T22:14:14.728Z,62.57
2022-12-23T22:16:43.311Z,62.43
2022-12-23T22:19:13.663Z,62.63
2022-12-23T22:21:42.790Z,63.37
2022-12-23T22:24:11.577Z,59.87
2022-12-23T22:26:40.697Z,62.40
2022-12-23T22:29:09.524Z,64.87
2022-12-23T22:31:41.488Z,65.07
2022-12-23T22:34:14.866Z,64.10
2022-12-23T22:36:44.083Z,65.27
2022-12-23T22:39:20.001Z,80.87
2022-12-23T22:41:49.849Z,72.10
2022-12-23T22:44:18.740Z,69.47
2022-12-23T22:46:47.416Z,67.47
2022-12-23T22:49:18.159Z,66.67
2022-12-23T22:51:46.778Z,71.90
2022-12-23T22:54:15.275Z,69.53
2022-12-23T22:56:49.323Z,69.67
2022-12-23T22:59:24.237Z,69.83
2022-12-23T23:02:01.046Z,65.90
2022-12-23T23:04:31.058Z,68.77
2022-12-23T23:06:59.388Z,66.47
2022-12-23T23:09:27.778Z,68.40
2022-12-23T23:11:56.180Z,68.43
2022-12-23T23:14:24.604Z,70.17
2022-12-23T23:16:53.002Z,67.90
2022-12-23T23:19:21.633Z,68.80
2022-12-23T23:21:53.486Z,68.70
2022-12-23T23:24:27.702Z,79.50
2022-12-23T23:26:59.535Z,71.87
2022-12-23T23:29:27.902Z,72.50
2022-12-23T23:31:56.405Z,66.40
2022-12-23T23:34:24.760Z,67.70
2022-12-23T23:36:54.475Z,67.83
2022-12-23T23:39:22.939Z,67.27
2022-12-23T23:41:51.341Z,69.70
2022-12-23T23:44:19.930Z,67.27
2022-12-23T23:46:48.758Z,69.70
2022-12-23T23:49:17.097Z,66.10
2022-12-23T23:51:45.391Z,63.60
2022-12-23T23:54:15.093Z,60.30
2022-12-23T23:56:43.453Z,57.13
2022-12-23T23:59:11.954Z,61.77
